Time;durP1;ratioP1;P1;durP2;ratioP2;P2;SDS_P1;SDS_P2;PMS_P1;PMS_P2;Temp;Humidity;BMP_temperature;BMP_pressure;BME280_temperature;BME280_humidity;BME280_pressure;Samples;Min_cycle;Max_cycle;Signal;HPM_P1;HPM_P2
2022/12/04 00:01:23;;;;;;;47.20;17.77;;;;;;;;;;5026886;28;20297;-62
2022/12/04 00:03:54;;;;;;;45.50;18.77;;;;;;;;;;5051879;28;20249;-63
2022/12/04 00:06:22;;;;;;;37.17;16.60;;;;;;;;;;5026650;28;20237;-63
2022/12/04 00:08:51;;;;;;;60.67;18.20;;;;;;;;;;5031497;28;20229;-62
2022/12/04 00:11:19;;;;;;;72.63;18.00;;;;;;;;;;5048102;28;20285;-62
2022/12/04 00:13:47;;;;;;;51.83;18.57;;;;;;;;;;5027972;28;20324;-62
2022/12/04 00:16:19;;;;;;;54.97;17.73;;;;;;;;;;5048936;28;20973;-62
2022/12/04 00:18:46;;;;;;;30.93;16.03;;;;;;;;;;5046249;28;20237;-61
2022/12/04 00:21:14;;;;;;;37.30;16.53;;;;;;;;;;5034360;28;20211;-63
2022/12/04 00:23:42;;;;;;;44.27;17.87;;;;;;;;;;5028435;28;20225;-62
2022/12/04 00:26:10;;;;;;;40.50;17.53;;;;;;;;;;5025688;28;20643;-62
2022/12/04 00:28:39;;;;;;;40.47;16.37;;;;;;;;;;5048134;28;20205;-62
2022/12/04 00:31:07;;;;;;;50.13;16.40;;;;;;;;;;5028616;28;20296;-62
2022/12/04 00:33:34;;;;;;;55.33;14.83;;;;;;;;;;5030498;28;20298;-62
2022/12/04 00:36:03;;;;;;;32.03;15.73;;;;;;;;;;5028524;28;20300;-63
2022/12/04 00:38:31;;;;;;;53.93;16.23;;;;;;;;;;5048424;28;20206;-62
2022/12/04 00:41:02;;;;;;;33.50;16.40;;;;;;;;;;5043756;28;20288;-63
2022/12/04 00:43:30;;;;;;;34.50;16.37;;;;;;;;;;5044653;28;20316;-62
2022/12/04 00:45:57;;;;;;;47.23;18.40;;;;;;;;;;5050936;28;20292;-61
2022/12/04 00:48:25;;;;;;;44.33;17.03;;;;;;;;;;5043326;28;20464;-63
2022/12/04 00:50:54;;;;;;;54.90;16.83;;;;;;;;;;5030397;28;20297;-62
2022/12/04 00:53:21;;;;;;;61.67;16.93;;;;;;;;;;5033742;28;20320;-63
2022/12/04 00:55:51;;;;;;;41.60;16.63;;;;;;;;;;5049080;28;20244;-63
2022/12/04 00:58:23;;;;;;;38.13;16.90;;;;;;;;;;5068279;28;20403;-62
2022/12/04 01:01:00;;;;;;;69.20;18.67;;;;;;;;;;5052212;28;20320;-63
2022/12/04 01:03:28;;;;;;;38.23;18.27;;;;;;;;;;5051753;28;20240;-62
2022/12/04 01:05:55;;;;;;;40.60;18.40;;;;;;;;;;5051376;28;20296;-63
2022/12/04 01:08:22;;;;;;;38.83;18.30;;;;;;;;;;5050613;28;20236;-63
2022/12/04 01:10:50;;;;;;;52.70;19.10;;;;;;;;;;5050714;28;20206;-63
2022/12/04 01:13:17;;;;;;;48.90;20.80;;;;;;;;;;5050321;28;20309;-64
2022/12/04 01:15:46;;;;;;;49.00;21.03;;;;;;;;;;5049209;28;20282;-62
2022/12/04 01:18:13;;;;;;;56.37;22.00;;;;;;;;;;5049234;28;20210;-63
2022/12/04 01:21:04;;;;;;;80.03;21.70;;;;;;;;;;5043103;28;20678;-63
2022/12/04 01:23:57;;;;;;;46.60;20.13;;;;;;;;;;5022718;28;20305;-62
2022/12/04 01:26:25;;;;;;;71.83;21.37;;;;;;;;;;5022224;28;20340;-62
2022/12/04 01:28:55;;;;;;;66.93;21.00;;;;;;;;;;5006947;28;20211;-63
2022/12/04 01:31:23;;;;;;;57.17;20.83;;;;;;;;;;5009622;28;20320;-62
2022/12/04 01:34:14;;;;;;;52.23;20.43;;;;;;;;;;5010714;28;20232;-62
2022/12/04 01:36:41;;;;;;;50.63;19.43;;;;;;;;;;5028195;28;20221;-62
2022/12/04 01:39:12;;;;;;;49.13;21.07;;;;;;;;;;5035297;28;20729;-62
2022/12/04 01:41:44;;;;;;;64.97;21.00;;;;;;;;;;5000986;28;20207;-62
2022/12/04 01:44:35;;;;;;;46.57;19.77;;;;;;;;;;5034265;28;20304;-63
2022/12/04 01:47:06;;;;;;;43.43;19.27;;;;;;;;;;5026351;28;21215;-62
2022/12/04 01:49:35;;;;;;;54.73;19.43;;;;;;;;;;5028423;28;20818;-62
2022/12/04 01:52:19;;;;;;;54.90;19.43;;;;;;;;;;5010562;28;20806;-63
2022/12/04 01:55:10;;;;;;;44.63;18.77;;;;;;;;;;5017755;28;20223;-62
2022/12/04 01:58:02;;;;;;;44.33;18.30;;;;;;;;;;5036121;28;20217;-63
2022/12/04 02:00:30;;;;;;;96.27;19.10;;;;;;;;;;5019324;28;20201;-62
2022/12/04 02:02:58;;;;;;;50.53;18.67;;;;;;;;;;5017096;28;20205;-63
2022/12/04 02:05:49;;;;;;;101.93;20.50;;;;;;;;;;5033831;28;21783;-63
2022/12/04 02:08:17;;;;;;;56.30;18.77;;;;;;;;;;5014818;28;20416;-62
2022/12/04 02:10:48;;;;;;;57.47;21.00;;;;;;;;;;5016139;28;20223;-61
2022/12/04 02:13:15;;;;;;;45.47;20.10;;;;;;;;;;5021065;28;20319;-62
2022/12/04 02:16:13;;;;;;;45.13;18.57;;;;;;;;;;5032297;28;20747;-61
2022/12/04 02:19:06;;;;;;;47.33;20.23;;;;;;;;;;5013770;28;20271;-62
2022/12/04 02:21:36;;;;;;;39.03;17.73;;;;;;;;;;5018926;28;20201;-63
2022/12/04 02:24:13;;;;;;;41.27;18.20;;;;;;;;;;5021306;28;20357;-61
2022/12/04 02:27:08;;;;;;;39.03;17.63;;;;;;;;;;5037203;28;20228;-62
2022/12/04 02:29:50;;;;;;;41.43;17.40;;;;;;;;;;5013361;28;20264;-61
2022/12/04 02:32:57;;;;;;;35.57;17.40;;;;;;;;;;5020857;28;20209;-62
2022/12/04 02:35:30;;;;;;;35.50;16.93;;;;;;;;;;4950271;28;20297;-62
2022/12/04 02:38:10;;;;;;;40.60;17.77;;;;;;;;;;5036488;28;20956;-61
2022/12/04 02:40:44;;;;;;;39.40;17.67;;;;;;;;;;5040214;28;20201;-62
2022/12/04 02:43:20;;;;;;;35.37;16.67;;;;;;;;;;5040552;28;20278;-62
2022/12/04 02:46:03;;;;;;;51.40;18.53;;;;;;;;;;5047420;28;20284;-61
2022/12/04 02:48:32;;;;;;;36.57;17.37;;;;;;;;;;5029077;28;20291;-62
2022/12/04 02:51:26;;;;;;;32.60;15.87;;;;;;;;;;5022859;28;20274;-62
2022/12/04 02:54:38;;;;;;;36.83;17.03;;;;;;;;;;5023126;28;20227;-62
2022/12/04 02:57:12;;;;;;;38.03;16.63;;;;;;;;;;5010390;28;20233;-62
2022/12/04 02:59:41;;;;;;;37.07;16.30;;;;;;;;;;5043207;28;20288;-62
2022/12/04 03:02:10;;;;;;;40.37;16.67;;;;;;;;;;5006883;28;20212;-62
2022/12/04 03:05:04;;;;;;;34.37;17.20;;;;;;;;;;5013815;28;20295;-61
2022/12/04 03:07:40;;;;;;;33.17;16.93;;;;;;;;;;5015896;28;20213;-62
2022/12/04 03:10:17;;;;;;;36.27;16.00;;;;;;;;;;5007045;28;20216;-61
2022/12/04 03:13:23;;;;;;;35.23;17.03;;;;;;;;;;5033440;28;20251;-62
2022/12/04 03:15:53;;;;;;;33.90;16.83;;;;;;;;;;5009702;28;20202;-62
2022/12/04 03:18:54;;;;;;;39.50;17.20;;;;;;;;;;5011000;28;20293;-62
2022/12/04 03:21:25;;;;;;;38.47;17.60;;;;;;;;;;5005155;28;20811;-62
2022/12/04 03:23:55;;;;;;;40.53;18.10;;;;;;;;;;5008643;28;20325;-62
2022/12/04 03:26:47;;;;;;;36.00;17.10;;;;;;;;;;5017119;28;20254;-62
2022/12/04 03:29:18;;;;;;;35.27;16.47;;;;;;;;;;5043286;28;20923;-61
2022/12/04 03:32:00;;;;;;;36.87;16.43;;;;;;;;;;5033923;28;20237;-62
2022/12/04 03:34:50;;;;;;;50.27;16.77;;;;;;;;;;5015433;28;20703;-62
2022/12/04 03:37:19;;;;;;;36.07;17.70;;;;;;;;;;5007435;28;20254;-61
2022/12/04 03:40:19;;;;;;;38.53;17.47;;;;;;;;;;5007493;28;20207;-62
2022/12/04 03:42:58;;;;;;;45.83;18.63;;;;;;;;;;5002763;28;20206;-62
2022/12/04 03:45:53;;;;;;;43.70;17.93;;;;;;;;;;5023794;28;20236;-62
2022/12/04 03:48:47;;;;;;;45.50;18.93;;;;;;;;;;5016503;28;21093;-62
2022/12/04 03:51:42;;;;;;;44.80;18.77;;;;;;;;;;5037990;28;20205;-62
2022/12/04 03:54:36;;;;;;;42.60;18.17;;;;;;;;;;5013608;28;20324;-61
2022/12/04 03:57:30;;;;;;;53.67;17.57;;;;;;;;;;5026802;28;20201;-62
2022/12/04 04:00:22;;;;;;;39.03;15.87;;;;;;;;;;5017610;28;21094;-62
2022/12/04 04:02:54;;;;;;;36.10;14.57;;;;;;;;;;5003078;28;20292;-62
2022/12/04 04:05:25;;;;;;;23.67;13.43;;;;;;;;;;5005823;28;20296;-62
2022/12/04 04:07:55;;;;;;;33.23;15.40;;;;;;;;;;5029118;28;20212;-62
2022/12/04 04:10:24;;;;;;;35.00;15.33;;;;;;;;;;5029765;28;20220;-61
2022/12/04 04:24:32;;;;;;;33.27;14.97;;;;;;;;;;5035639;28;20356;-61
2022/12/04 04:27:01;;;;;;;39.43;15.23;;;;;;;;;;5024308;28;20313;-62
2022/12/04 04:29:52;;;;;;;43.97;16.53;;;;;;;;;;5029472;28;20285;-62
2022/12/04 04:36:18;;;;;;;39.17;16.07;;;;;;;;;;5036051;28;20254;-62
2022/12/04 04:39:09;;;;;;;43.20;15.87;;;;;;;;;;5046318;28;20207;-61
2022/12/04 04:42:24;;;;;;;54.57;15.77;;;;;;;;;;5044997;28;20195;-63
2022/12/04 04:45:15;;;;;;;36.33;16.47;;;;;;;;;;5068706;28;20235;-61
2022/12/04 04:48:06;;;;;;;37.30;16.50;;;;;;;;;;5039259;28;20876;-61
2022/12/04 04:50:58;;;;;;;67.20;18.00;;;;;;;;;;5031508;28;20319;-61
2022/12/04 04:53:34;;;;;;;39.13;16.90;;;;;;;;;;5041557;28;20367;-61
2022/12/04 04:56:05;;;;;;;41.03;18.10;;;;;;;;;;5051215;28;20575;-61
2022/12/04 04:58:56;;;;;;;45.40;18.20;;;;;;;;;;5055555;28;20564;-62
2022/12/04 05:01:48;;;;;;;48.77;17.97;;;;;;;;;;5060869;28;20195;-62
2022/12/04 05:04:39;;;;;;;49.47;18.73;;;;;;;;;;5044084;28;21479;-61
2022/12/04 05:07:29;;;;;;;47.23;18.97;;;;;;;;;;5036778;28;20208;-61
2022/12/04 05:09:57;;;;;;;55.23;17.53;;;;;;;;;;5023709;28;20214;-62
2022/12/04 05:12:25;;;;;;;36.60;16.70;;;;;;;;;;5032439;28;20263;-61
2022/12/04 05:15:16;;;;;;;42.50;16.93;;;;;;;;;;5046882;28;20224;-62
2022/12/04 05:17:45;;;;;;;39.30;17.63;;;;;;;;;;5024217;28;20985;-61
2022/12/04 05:20:14;;;;;;;38.70;17.37;;;;;;;;;;5026609;28;20233;-62
2022/12/04 05:22:41;;;;;;;35.07;14.97;;;;;;;;;;5047712;28;20478;-62
2022/12/04 05:25:09;;;;;;;31.77;15.40;;;;;;;;;;5025931;28;20308;-62
2022/12/04 05:27:37;;;;;;;39.23;17.63;;;;;;;;;;5034146;28;20245;-61
2022/12/04 05:30:05;;;;;;;48.77;17.63;;;;;;;;;;5017576;28;20210;-62
2022/12/04 05:32:34;;;;;;;36.63;16.80;;;;;;;;;;5029272;28;20201;-62
2022/12/04 05:35:01;;;;;;;40.40;17.47;;;;;;;;;;5029637;28;20233;-62
2022/12/04 05:37:52;;;;;;;40.33;17.80;;;;;;;;;;5015893;28;20240;-62
2022/12/04 05:40:20;;;;;;;42.00;17.33;;;;;;;;;;5030841;28;20290;-61
2022/12/04 05:43:11;;;;;;;44.10;18.30;;;;;;;;;;5031565;28;20209;-62
2022/12/04 05:45:38;;;;;;;41.97;17.37;;;;;;;;;;5017849;28;20676;-62
2022/12/04 05:48:30;;;;;;;43.03;18.70;;;;;;;;;;5014522;28;20300;-62
2022/12/04 05:51:22;;;;;;;39.57;18.37;;;;;;;;;;5013430;28;21163;-63
2022/12/04 05:54:12;;;;;;;47.23;19.23;;;;;;;;;;5014729;28;20290;-61
2022/12/04 05:56:43;;;;;;;40.87;19.00;;;;;;;;;;5026765;28;20293;-62
2022/12/04 05:59:35;;;;;;;36.97;15.97;;;;;;;;;;5027301;28;20200;-61
2022/12/04 06:02:05;;;;;;;36.83;15.80;;;;;;;;;;5026027;28;21957;-60
2022/12/04 06:04:39;;;;;;;39.37;18.80;;;;;;;;;;5035286;28;20256;-61
2022/12/04 06:07:30;;;;;;;39.20;17.90;;;;;;;;;;5030947;28;20701;-62
2022/12/04 06:10:01;;;;;;;38.60;17.63;;;;;;;;;;5045352;28;20271;-60
2022/12/04 06:12:30;;;;;;;35.73;16.37;;;;;;;;;;5050342;28;20228;-60
2022/12/04 06:15:21;;;;;;;34.37;16.23;;;;;;;;;;5032327;28;20228;-62
2022/12/04 06:18:12;;;;;;;56.83;17.10;;;;;;;;;;5028476;28;20908;-62
2022/12/04 06:20:40;;;;;;;38.97;17.07;;;;;;;;;;5028115;28;20289;-61
2022/12/04 06:23:11;;;;;;;42.67;17.87;;;;;;;;;;5031528;28;20259;-61
2022/12/04 06:25:38;;;;;;;56.43;17.70;;;;;;;;;;5028084;28;20304;-62
2022/12/04 06:28:30;;;;;;;41.90;18.17;;;;;;;;;;5031603;28;20761;-62
2022/12/04 06:31:20;;;;;;;48.47;17.47;;;;;;;;;;5045535;28;20208;-62
2022/12/04 06:34:11;;;;;;;40.30;17.33;;;;;;;;;;5028219;28;20240;-61
2022/12/04 06:37:02;;;;;;;34.70;16.63;;;;;;;;;;5042683;28;20294;-62
2022/12/04 06:39:30;;;;;;;37.67;16.80;;;;;;;;;;5054122;28;20206;-61
2022/12/04 06:41:57;;;;;;;37.63;16.50;;;;;;;;;;5053795;28;20244;-62
2022/12/04 06:44:24;;;;;;;50.03;18.57;;;;;;;;;;5054651;28;20640;-61
2022/12/04 06:47:15;;;;;;;40.20;16.33;;;;;;;;;;5059525;28;20198;-62
2022/12/04 06:49:44;;;;;;;31.03;15.13;;;;;;;;;;5032190;28;20262;-62
2022/12/04 06:52:35;;;;;;;36.63;17.00;;;;;;;;;;5031752;28;20204;-62
2022/12/04 06:55:29;;;;;;;35.23;16.30;;;;;;;;;;5052940;28;20235;-62
2022/12/04 06:58:00;;;;;;;33.70;16.20;;;;;;;;;;5032518;28;20621;-62
2022/12/04 07:00:52;;;;;;;35.30;16.10;;;;;;;;;;5035600;28;20196;-61
2022/12/04 07:03:43;;;;;;;35.13;15.70;;;;;;;;;;5038029;28;20278;-62
2022/12/04 07:06:18;;;;;;;37.30;15.73;;;;;;;;;;5035748;28;20216;-62
2022/12/04 07:08:46;;;;;;;36.90;15.97;;;;;;;;;;5030328;28;20596;-62
2022/12/04 07:11:14;;;;;;;36.93;16.97;;;;;;;;;;5030175;28;20206;-62
2022/12/04 07:14:05;;;;;;;42.17;16.83;;;;;;;;;;5037280;28;21006;-62
2022/12/04 07:16:33;;;;;;;40.93;16.30;;;;;;;;;;5026819;28;20296;-62
2022/12/04 07:19:24;;;;;;;35.50;17.03;;;;;;;;;;5032763;28;20181;-62
2022/12/04 07:22:15;;;;;;;34.20;18.13;;;;;;;;;;5043472;28;20205;-62
2022/12/04 07:24:44;;;;;;;37.90;17.27;;;;;;;;;;5035454;28;20656;-62
2022/12/04 07:27:35;;;;;;;37.17;16.10;;;;;;;;;;5049851;28;20205;-62
2022/12/04 07:30:26;;;;;;;24.87;13.70;;;;;;;;;;5043886;28;20212;-62
2022/12/04 07:33:17;;;;;;;28.60;14.90;;;;;;;;;;5045596;28;20383;-62
2022/12/04 07:36:10;;;;;;;28.17;14.77;;;;;;;;;;5033224;28;20209;-62
2022/12/04 07:39:01;;;;;;;27.23;13.77;;;;;;;;;;5026127;28;20208;-63
2022/12/04 07:41:52;;;;;;;24.73;14.17;;;;;;;;;;5029365;28;20207;-62
2022/12/04 07:44:19;;;;;;;26.03;13.90;;;;;;;;;;5025847;28;20258;-63
2022/12/04 07:47:10;;;;;;;27.20;13.17;;;;;;;;;;5036749;28;20196;-63
2022/12/04 07:50:03;;;;;;;26.27;14.10;;;;;;;;;;5029793;28;20247;-62
2022/12/04 07:52:55;;;;;;;28.13;13.97;;;;;;;;;;5047877;28;20220;-62
2022/12/04 07:55:51;;;;;;;22.53;12.07;;;;;;;;;;5034451;28;20332;-62
2022/12/04 08:04:52;;;;;;;35.33;18.47;;;;;;;;;;5047877;28;20308;-62
2022/12/04 08:07:19;;;;;;;24.33;14.23;;;;;;;;;;5056634;28;20206;-61
2022/12/04 08:09:46;;;;;;;22.63;12.00;;;;;;;;;;5062675;28;20693;-62
2022/12/04 08:12:37;;;;;;;26.23;13.80;;;;;;;;;;5035239;28;20207;-62
2022/12/04 08:17:58;;;;;;;26.63;13.50;;;;;;;;;;5061816;28;20745;-61
2022/12/04 08:20:49;;;;;;;25.93;13.93;;;;;;;;;;5052300;28;20192;-62
2022/12/04 08:23:41;;;;;;;24.27;14.30;;;;;;;;;;5053130;28;20234;-63
2022/12/04 08:26:33;;;;;;;29.47;13.93;;;;;;;;;;5066374;28;20201;-62
2022/12/04 08:29:24;;;;;;;26.37;14.17;;;;;;;;;;5034462;28;20311;-62
2022/12/04 08:32:16;;;;;;;28.37;13.57;;;;;;;;;;5054180;28;20195;-62
2022/12/04 08:35:08;;;;;;;29.93;15.80;;;;;;;;;;5038502;28;20236;-62
2022/12/04 08:40:42;;;;;;;32.20;15.80;;;;;;;;;;1396390;26;20233;-78
2022/12/04 08:43:34;;;;;;;31.57;15.20;;;;;;;;;;5058876;28;20224;-79
2022/12/04 08:46:25;;;;;;;30.80;15.03;;;;;;;;;;5023794;28;20221;-77
2022/12/04 08:49:16;;;;;;;35.33;15.17;;;;;;;;;;5029268;28;20220;-79
2022/12/04 08:52:08;;;;;;;32.90;16.63;;;;;;;;;;5048656;28;20222;-78
2022/12/04 08:58:30;;;;;;;32.73;16.27;;;;;;;;;;5053995;28;20201;-80
2022/12/04 09:01:08;;;;;;;37.53;17.07;;;;;;;;;;5055208;28;20205;-78
2022/12/04 09:03:35;;;;;;;40.43;18.97;;;;;;;;;;5012492;28;20688;-77
2022/12/04 09:06:05;;;;;;;41.97;20.50;;;;;;;;;;5018273;28;20231;-77
2022/12/04 09:08:32;;;;;;;41.43;18.63;;;;;;;;;;5016458;28;20786;-75
2022/12/04 09:11:07;;;;;;;42.07;19.10;;;;;;;;;;5020371;28;20202;-77
2022/12/04 09:13:37;;;;;;;34.17;16.50;;;;;;;;;;5024063;28;20220;-77
2022/12/04 09:16:06;;;;;;;38.97;18.03;;;;;;;;;;5012606;28;20234;-79
2022/12/04 09:18:57;;;;;;;37.30;18.73;;;;;;;;;;5018070;28;20193;-76
2022/12/04 09:21:25;;;;;;;39.53;17.47;;;;;;;;;;5033709;28;20205;-76
2022/12/04 09:23:52;;;;;;;38.57;17.40;;;;;;;;;;5006874;28;20278;-75
2022/12/04 09:26:27;;;;;;;45.27;17.43;;;;;;;;;;5018975;28;20340;-75
2022/12/04 09:29:18;;;;;;;41.30;17.93;;;;;;;;;;5035820;28;20190;-79
2022/12/04 09:32:10;;;;;;;42.13;18.83;;;;;;;;;;5033043;28;20200;-78
2022/12/04 09:35:01;;;;;;;41.20;17.97;;;;;;;;;;5043069;28;20225;-77
2022/12/04 09:37:52;;;;;;;41.63;17.23;;;;;;;;;;5047603;28;20198;-77
2022/12/04 09:40:51;;;;;;;36.93;17.30;;;;;;;;;;5033796;28;20231;-77
2022/12/04 09:43:42;;;;;;;38.90;16.90;;;;;;;;;;5040281;28;20193;-78
2022/12/04 09:46:12;;;;;;;37.77;16.73;;;;;;;;;;5053020;28;20264;-76
2022/12/04 09:48:41;;;;;;;37.27;17.47;;;;;;;;;;5037445;28;20214;-77
2022/12/04 09:51:17;;;;;;;32.47;16.00;;;;;;;;;;5035526;28;20207;-80
2022/12/04 09:54:14;;;;;;;27.27;14.67;;;;;;;;;;5033866;28;20603;-76
2022/12/04 09:56:43;;;;;;;24.60;13.47;;;;;;;;;;5042443;28;20211;-77
2022/12/04 09:59:11;;;;;;;19.47;11.50;;;;;;;;;;5040079;28;20206;-79
2022/12/04 10:01:41;;;;;;;21.40;11.70;;;;;;;;;;5042119;28;20452;-77
2022/12/04 10:04:09;;;;;;;21.20;11.93;;;;;;;;;;5048401;28;20227;-79
2022/12/04 10:06:42;;;;;;;20.73;11.53;;;;;;;;;;5043924;28;20229;-77
2022/12/04 10:09:15;;;;;;;20.83;11.80;;;;;;;;;;5031346;28;20247;-79
2022/12/04 10:12:25;;;;;;;22.00;12.77;;;;;;;;;;5056183;28;20204;-79
2022/12/04 10:14:55;;;;;;;30.13;16.90;;;;;;;;;;4965598;28;20227;-79
2022/12/04 10:18:02;;;;;;;28.37;14.63;;;;;;;;;;4961343;28;20215;-81
2022/12/04 10:20:49;;;;;;;25.03;14.40;;;;;;;;;;5030358;28;20209;-76
2022/12/04 10:23:43;;;;;;;25.97;14.50;;;;;;;;;;5025946;28;20203;-76
2022/12/04 10:26:15;;;;;;;28.00;13.87;;;;;;;;;;5040280;28;20773;-78
2022/12/04 10:28:44;;;;;;;22.30;13.00;;;;;;;;;;5042859;28;20369;-76
2022/12/04 10:31:18;;;;;;;23.30;12.87;;;;;;;;;;5060709;28;20193;-77
2022/12/04 10:34:18;;;;;;;20.67;12.03;;;;;;;;;;5047594;28;20225;-78
2022/12/04 10:37:12;;;;;;;23.23;12.97;;;;;;;;;;5043810;28;20235;-76
2022/12/04 10:40:16;;;;;;;21.23;12.60;;;;;;;;;;5044652;28;20201;-81
2022/12/04 10:43:16;;;;;;;24.07;14.03;;;;;;;;;;5027896;28;20205;-76
2022/12/04 10:46:12;;;;;;;24.90;14.40;;;;;;;;;;5046295;28;20829;-77
2022/12/04 10:48:41;;;;;;;22.37;12.47;;;;;;;;;;5049950;28;20212;-78
2022/12/04 10:51:20;;;;;;;21.90;13.23;;;;;;;;;;5051757;28;20206;-77
2022/12/04 10:54:20;;;;;;;20.40;13.20;;;;;;;;;;5048883;28;20713;-78
2022/12/04 10:57:15;;;;;;;18.83;12.10;;;;;;;;;;5041150;28;20282;-77
2022/12/04 10:59:53;;;;;;;21.93;12.37;;;;;;;;;;5044473;28;20225;-80
2022/12/04 11:02:45;;;;;;;20.30;12.23;;;;;;;;;;5036035;28;20205;-75
2022/12/04 11:05:48;;;;;;;21.40;12.47;;;;;;;;;;5052425;28;20565;-78
2022/12/04 11:08:43;;;;;;;19.73;12.43;;;;;;;;;;4988862;28;20197;-76
2022/12/04 11:12:00;;;;;;;19.33;11.73;;;;;;;;;;5049614;28;20213;-79
2022/12/04 11:14:54;;;;;;;21.93;12.93;;;;;;;;;;5054139;28;20233;-78
2022/12/04 11:17:46;;;;;;;21.53;13.30;;;;;;;;;;5050045;28;20656;-77
2022/12/04 11:20:24;;;;;;;21.20;12.80;;;;;;;;;;5025053;28;20679;-76
2022/12/04 11:22:53;;;;;;;20.60;12.90;;;;;;;;;;5039575;28;20217;-75
2022/12/04 11:25:21;;;;;;;20.87;13.13;;;;;;;;;;5030329;28;20234;-75
2022/12/04 11:27:52;;;;;;;22.83;13.50;;;;;;;;;;5046806;28;20236;-78
2022/12/04 11:30:23;;;;;;;27.07;15.70;;;;;;;;;;5043419;28;20198;-80
2022/12/04 11:32:50;;;;;;;26.20;14.80;;;;;;;;;;5027684;28;20212;-78
2022/12/04 11:35:21;;;;;;;22.83;13.67;;;;;;;;;;5018260;28;20226;-78
2022/12/04 11:37:53;;;;;;;24.40;14.10;;;;;;;;;;5041177;28;20305;-76
2022/12/04 11:40:22;;;;;;;29.50;18.43;;;;;;;;;;5042049;28;20203;-76
2022/12/04 11:43:01;;;;;;;31.57;17.67;;;;;;;;;;5041913;28;20663;-79
2022/12/04 11:45:28;;;;;;;33.43;21.23;;;;;;;;;;5040282;28;20604;-76
2022/12/04 11:47:56;;;;;;;28.87;16.23;;;;;;;;;;5043334;28;20565;-79
2022/12/04 11:50:23;;;;;;;29.97;15.63;;;;;;;;;;5038903;28;20202;-76
2022/12/04 11:53:10;;;;;;;21.77;12.43;;;;;;;;;;5048247;28;20210;-78
2022/12/04 11:56:03;;;;;;;24.17;13.50;;;;;;;;;;5039462;28;20252;-77
2022/12/04 11:58:30;;;;;;;30.00;16.97;;;;;;;;;;4999608;28;20469;-76
2022/12/04 12:01:18;;;;;;;23.83;14.03;;;;;;;;;;5027539;28;20199;-76
2022/12/04 12:03:48;;;;;;;27.53;16.03;;;;;;;;;;5043565;28;20210;-76
2022/12/04 12:06:29;;;;;;;43.63;16.90;;;;;;;;;;5023165;28;20206;-77
2022/12/04 12:08:56;;;;;;;27.20;14.87;;;;;;;;;;5047782;28;20209;-79
2022/12/04 12:11:25;;;;;;;25.63;13.23;;;;;;;;;;5051556;28;20202;-79
2022/12/04 12:13:55;;;;;;;24.77;13.50;;;;;;;;;;5064600;28;20209;-77
2022/12/04 12:16:27;;;;;;;28.40;14.90;;;;;;;;;;5051092;28;20252;-78
2022/12/04 12:18:54;;;;;;;35.80;18.43;;;;;;;;;;5027026;28;20194;-78
2022/12/04 12:21:25;;;;;;;26.23;14.80;;;;;;;;;;5049710;28;20648;-77
2022/12/04 12:23:59;;;;;;;28.60;14.70;;;;;;;;;;5028658;28;20238;-77
2022/12/04 12:26:53;;;;;;;26.30;13.57;;;;;;;;;;5046221;28;20230;-77
2022/12/04 12:29:53;;;;;;;29.90;14.00;;;;;;;;;;5041426;28;20686;-78
2022/12/04 12:32:40;;;;;;;25.63;13.83;;;;;;;;;;4991786;28;20198;-79
2022/12/04 12:35:17;;;;;;;26.53;14.97;;;;;;;;;;5046475;28;20717;-76
2022/12/04 12:37:50;;;;;;;24.37;13.60;;;;;;;;;;5045058;28;20206;-77
2022/12/04 12:40:20;;;;;;;22.13;13.33;;;;;;;;;;5046616;28;20198;-77
2022/12/04 12:43:00;;;;;;;21.67;13.40;;;;;;;;;;5045397;28;20207;-76
2022/12/04 12:45:35;;;;;;;22.50;13.97;;;;;;;;;;5045019;28;20321;-77
2022/12/04 12:48:21;;;;;;;27.30;16.70;;;;;;;;;;5044405;28;20213;-76
2022/12/04 12:50:52;;;;;;;24.80;15.03;;;;;;;;;;5040123;28;20206;-77
2022/12/04 12:53:41;;;;;;;30.90;18.00;;;;;;;;;;5051237;28;20221;-76
2022/12/04 12:56:08;;;;;;;24.53;14.27;;;;;;;;;;5050191;28;20229;-79
2022/12/04 12:58:39;;;;;;;28.13;15.53;;;;;;;;;;5048366;28;20697;-76
2022/12/04 13:01:15;;;;;;;25.20;15.37;;;;;;;;;;5052006;28;20197;-75
2022/12/04 13:04:03;;;;;;;28.10;15.10;;;;;;;;;;5039537;28;20248;-78
2022/12/04 13:06:33;;;;;;;26.80;14.50;;;;;;;;;;4993771;28;20198;-79
2022/12/04 13:09:19;;;;;;;25.10;15.37;;;;;;;;;;5036729;28;20199;-78
2022/12/04 13:11:48;;;;;;;25.13;14.73;;;;;;;;;;5049183;28;20202;-80
2022/12/04 13:14:16;;;;;;;26.00;15.13;;;;;;;;;;5029059;28;20241;-79
2022/12/04 13:16:43;;;;;;;24.47;14.90;;;;;;;;;;5045720;28;20237;-76
2022/12/04 13:19:14;;;;;;;21.60;13.20;;;;;;;;;;5045899;28;20206;-78
2022/12/04 13:21:52;;;;;;;24.60;15.43;;;;;;;;;;5049556;28;20208;-76
2022/12/04 13:24:38;;;;;;;22.13;13.63;;;;;;;;;;5045722;28;20720;-76
2022/12/04 13:27:08;;;;;;;17.70;12.93;;;;;;;;;;5045177;28;20202;-78
2022/12/04 13:29:50;;;;;;;18.13;11.90;;;;;;;;;;5046347;28;20289;-78
2022/12/04 13:32:20;;;;;;;20.83;13.30;;;;;;;;;;5051454;28;20669;-76
2022/12/04 13:34:53;;;;;;;28.40;16.47;;;;;;;;;;5045513;28;20789;-76
2022/12/04 13:37:53;;;;;;;28.90;16.27;;;;;;;;;;5049931;28;20216;-77
2022/12/04 13:40:29;;;;;;;28.70;16.10;;;;;;;;;;5010020;28;20205;-77
2022/12/04 13:43:15;;;;;;;30.80;16.50;;;;;;;;;;5055090;28;20579;-78
2022/12/04 13:45:45;;;;;;;35.43;16.43;;;;;;;;;;5051019;28;20229;-78
2022/12/04 13:48:12;;;;;;;35.73;17.20;;;;;;;;;;5024711;28;20216;-78
2022/12/04 13:50:40;;;;;;;32.67;17.40;;;;;;;;;;5052186;28;20216;-77
2022/12/04 13:53:27;;;;;;;32.33;17.37;;;;;;;;;;5063201;28;20197;-76
2022/12/04 13:55:55;;;;;;;30.37;16.13;;;;;;;;;;5043027;28;20226;-78
2022/12/04 13:58:25;;;;;;;30.53;16.73;;;;;;;;;;5035645;28;20194;-79
2022/12/04 14:01:22;;;;;;;37.83;16.63;;;;;;;;;;5052463;28;20292;-78
2022/12/04 14:03:54;;;;;;;33.27;15.53;;;;;;;;;;5042616;28;20666;-78
2022/12/04 14:06:25;;;;;;;37.67;16.07;;;;;;;;;;5055089;28;20209;-81
2022/12/04 14:09:02;;;;;;;30.87;16.57;;;;;;;;;;5057643;28;20213;-78
2022/12/04 14:11:33;;;;;;;35.40;18.50;;;;;;;;;;5045971;28;20678;-76
2022/12/04 14:14:01;;;;;;;88.80;19.27;;;;;;;;;;5056995;28;20659;-79
2022/12/04 14:16:39;;;;;;;45.70;19.03;;;;;;;;;;5043311;28;20222;-78
2022/12/04 14:19:07;;;;;;;40.37;20.80;;;;;;;;;;5048227;28;20215;-76
2022/12/04 14:21:38;;;;;;;62.27;18.13;;;;;;;;;;5055820;28;20205;-76
2022/12/04 14:24:15;;;;;;;82.67;18.57;;;;;;;;;;5045522;28;20214;-77
2022/12/04 14:26:51;;;;;;;30.93;17.03;;;;;;;;;;5035362;28;20212;-75
2022/12/04 14:29:43;;;;;;;69.30;17.30;;;;;;;;;;5047198;28;20260;-77
2022/12/04 14:32:16;;;;;;;93.47;16.83;;;;;;;;;;5047754;28;20219;-79
2022/12/04 14:34:44;;;;;;;84.93;17.47;;;;;;;;;;5052289;28;20236;-76
2022/12/04 14:37:18;;;;;;;43.57;16.90;;;;;;;;;;5050839;28;20220;-77
2022/12/04 14:39:46;;;;;;;37.47;17.23;;;;;;;;;;5046102;28;20693;-77
2022/12/04 14:42:13;;;;;;;34.00;17.20;;;;;;;;;;5036854;28;20804;-77
2022/12/04 14:44:42;;;;;;;76.87;15.57;;;;;;;;;;5046643;28;20214;-78
2022/12/04 14:47:28;;;;;;;58.73;17.70;;;;;;;;;;5047151;28;20286;-78
2022/12/04 14:50:04;;;;;;;35.63;17.77;;;;;;;;;;5025450;28;20209;-78
2022/12/04 14:52:33;;;;;;;124.57;27.53;;;;;;;;;;5043003;28;20674;-77
2022/12/04 14:55:14;;;;;;;43.00;18.20;;;;;;;;;;5051993;28;20608;-77
2022/12/04 14:58:28;;;;;;;27.43;15.20;;;;;;;;;;5045374;28;20204;-78
2022/12/04 15:00:51;;;;;;;49.57;16.77;;;;;;;;;;5037438;28;20205;-75
2022/12/04 15:03:18;;;;;;;64.03;19.93;;;;;;;;;;5049646;28;20204;-76
2022/12/04 15:05:46;;;;;;;50.57;15.83;;;;;;;;;;5046709;28;20602;-76
2022/12/04 15:08:14;;;;;;;34.40;16.23;;;;;;;;;;5045086;28;20576;-75
2022/12/04 15:13:36;;;;;;;45.33;19.37;;;;;;;;;;5041411;28;20679;-78
2022/12/04 15:16:17;;;;;;;117.03;18.03;;;;;;;;;;5043843;28;20226;-76
2022/12/04 15:18:58;;;;;;;125.17;17.57;;;;;;;;;;5050059;28;20293;-78
2022/12/04 15:21:36;;;;;;;126.50;16.60;;;;;;;;;;5043726;28;20210;-78
2022/12/04 15:24:08;;;;;;;187.30;18.93;;;;;;;;;;5048250;28;20673;-76
2022/12/04 15:26:35;;;;;;;58.73;20.17;;;;;;;;;;5045213;28;20233;-75
2022/12/04 15:29:03;;;;;;;100.87;17.80;;;;;;;;;;5044655;28;20216;-77
2022/12/04 15:31:34;;;;;;;66.87;18.57;;;;;;;;;;5040747;28;20202;-78
2022/12/04 15:34:02;;;;;;;74.90;19.53;;;;;;;;;;5050924;28;20304;-77
2022/12/04 15:36:30;;;;;;;49.77;16.53;;;;;;;;;;5048065;28;20594;-76
2022/12/04 15:38:58;;;;;;;55.87;19.63;;;;;;;;;;5050768;28;20193;-76
2022/12/04 15:41:30;;;;;;;100.67;28.13;;;;;;;;;;5032244;28;20317;-75
2022/12/04 15:43:57;;;;;;;141.30;27.23;;;;;;;;;;5055159;28;20692;-78
2022/12/04 15:46:26;;;;;;;75.67;19.97;;;;;;;;;;5050275;28;20214;-76
2022/12/04 15:49:04;;;;;;;169.70;23.27;;;;;;;;;;5037524;28;20565;-76
2022/12/04 15:51:31;;;;;;;88.00;19.60;;;;;;;;;;5043078;28;20210;-80
2022/12/04 15:53:58;;;;;;;91.50;18.90;;;;;;;;;;5038750;28;20577;-78
2022/12/04 15:56:26;;;;;;;153.17;18.10;;;;;;;;;;5032054;28;20220;-80